createdAt,value
2022-10-23T00:03:02.303Z,9.4
2022-10-23T00:08:02.118Z,9.2
2022-10-23T00:13:01.622Z,9.5
2022-10-23T00:18:01.614Z,8.8
2022-10-23T00:23:01.646Z,8.8
2022-10-23T00:28:02.037Z,8.6
2022-10-23T00:38:01.756Z,8.5
2022-10-23T00:43:01.629Z,8.9
2022-10-23T00:48:01.673Z,9.1
2022-10-23T00:53:01.619Z,8.8
2022-10-23T00:58:01.735Z,8.6
2022-10-23T01:03:01.672Z,8.5
2022-10-23T01:08:01.675Z,8.2
2022-10-23T01:13:01.611Z,8.6
2022-10-23T01:18:01.604Z,10.1
2022-10-23T01:23:01.629Z,11.6
2022-10-23T01:28:01.538Z,13.1
2022-10-23T01:33:01.515Z,14.6
2022-10-23T01:38:01.694Z,15.7
2022-10-23T01:43:01.623Z,15.7
2022-10-23T01:48:01.658Z,14.9
2022-10-23T01:53:01.632Z,15.5
2022-10-23T02:03:01.619Z,16.4
2022-10-23T02:08:01.663Z,17.2
2022-10-23T02:13:01.629Z,19.2
2022-10-23T02:18:01.627Z,19.6
2022-10-23T02:23:01.632Z,19.0
2022-10-23T02:28:01.619Z,19.1
2022-10-23T02:33:01.618Z,19.1
2022-10-23T02:38:01.569Z,18.8
2022-10-23T02:48:01.679Z,19.8
2022-10-23T02:53:01.568Z,19.8
2022-10-23T02:58:01.552Z,20.0
2022-10-23T03:03:01.509Z,20.0
2022-10-23T03:08:01.579Z,20.8
2022-10-23T03:13:01.552Z,21.1
2022-10-23T03:19:01.705Z,22.0
2022-10-23T03:24:01.672Z,22.0
2022-10-23T03:29:01.651Z,21.7
2022-10-23T03:34:09.303Z,20.5
2022-10-23T03:39:01.643Z,20.0
2022-10-23T03:44:02.001Z,19.4
2022-10-23T03:49:01.672Z,19.8
2022-10-23T03:54:01.711Z,20.6
2022-10-23T03:59:01.671Z,20.2
2022-10-23T04:04:01.696Z,20.3
2022-10-23T04:09:01.922Z,22.2
2022-10-23T04:14:01.637Z,22.9
2022-10-23T04:19:01.626Z,22.7
2022-10-23T04:24:01.667Z,24.8
2022-10-23T04:29:01.694Z,26.4
2022-10-23T04:34:01.918Z,26.7
2022-10-23T04:39:01.650Z,27.1
2022-10-23T04:44:01.574Z,28.2
2022-10-23T04:49:01.633Z,28.2
2022-10-23T04:54:01.750Z,28.5
2022-10-23T04:59:01.727Z,28.5
2022-10-23T05:09:01.741Z,28.9
2022-10-23T05:14:01.622Z,29.8
2022-10-23T05:24:01.644Z,29.7
2022-10-23T05:29:01.641Z,31.3
2022-10-23T05:34:01.621Z,30.0
2022-10-23T05:39:03.404Z,29.5
2022-10-23T05:44:01.622Z,29.5
2022-10-23T05:49:01.727Z,29.6
2022-10-23T05:54:01.690Z,29.0
2022-10-23T05:59:01.720Z,30.3
2022-10-23T06:04:01.669Z,31.0
2022-10-23T06:09:01.722Z,32.0
2022-10-23T06:14:01.655Z,32.6
2022-10-23T06:19:01.642Z,33.8
2022-10-23T06:24:01.315Z,34.0
2022-10-23T06:29:01.722Z,34.6
2022-10-23T06:34:01.702Z,34.5
2022-10-23T06:39:01.634Z,34.6
2022-10-23T06:44:01.651Z,33.7
2022-10-23T06:49:02.559Z,34.4
2022-10-23T06:54:01.644Z,34.5
2022-10-23T06:59:01.570Z,34.9
2022-10-23T07:04:01.609Z,35.7
2022-10-23T07:09:02.218Z,36.8
2022-10-23T07:14:01.633Z,36.8
2022-10-23T07:19:01.855Z,37.2
2022-10-23T07:24:01.690Z,37.8
2022-10-23T07:34:01.714Z,38.2
2022-10-23T07:39:01.636Z,38.8
2022-10-23T07:44:02.139Z,38.6
2022-10-23T07:49:02.047Z,38.2
2022-10-23T07:54:01.764Z,37.8
2022-10-23T07:59:02.076Z,36.5
2022-10-23T08:04:01.616Z,35.3
2022-10-23T08:09:06.878Z,34.3
2022-10-23T08:14:01.684Z,33.2
2022-10-23T08:19:02.393Z,31.6
2022-10-23T08:24:02.278Z,30.8
2022-10-23T08:29:01.656Z,29.8
2022-10-23T08:34:01.677Z,28.8
2022-10-23T08:39:01.673Z,27.8
2022-10-23T08:44:01.526Z,27.6
2022-10-23T08:49:01.767Z,26.4
2022-10-23T08:55:01.805Z,25.6
2022-10-23T09:00:05.285Z,23.8
2022-10-23T09:05:01.706Z,22.6
2022-10-23T09:10:14.391Z,20.8
2022-10-23T09:15:12.065Z,19.3
2022-10-23T09:20:17.857Z,17.8
2022-10-23T09:25:02.072Z,17.4
2022-10-23T09:30:03.093Z,16.3
2022-10-23T09:35:02.965Z,15.1
2022-10-23T09:40:01.647Z,14.2
2022-10-23T09:45:02.438Z,13.9
2022-10-23T09:50:01.683Z,13.8
2022-10-23T09:55:14.679Z,14.4
2022-10-23T10:00:14.475Z,31.4
2022-10-23T10:05:01.619Z,32.4
2022-10-23T10:10:01.619Z,35.0
2022-10-23T10:15:17.299Z,39.7
2022-10-23T10:20:07.250Z,40.0
2022-10-23T10:25:01.614Z,23.7
2022-10-23T10:30:07.384Z,22.8
2022-10-23T10:36:01.600Z,19.6
2022-10-23T10:41:01.500Z,14.4
2022-10-23T10:46:17.634Z,13.3
2022-10-23T10:51:01.659Z,12.6
2022-10-23T10:56:01.677Z,12.9
2022-10-23T11:01:01.822Z,13.2
2022-10-23T11:11:01.565Z,13.4
2022-10-23T11:16:01.559Z,13.6
2022-10-23T11:21:01.536Z,13.4
2022-10-23T11:26:20.013Z,13.3
2022-10-23T11:31:01.554Z,13.3
2022-10-23T11:36:01.588Z,13.0
2022-10-23T11:41:01.533Z,13.1
2022-10-23T11:46:01.670Z,13.4
2022-10-23T11:51:05.402Z,13.4
2022-10-23T11:56:01.654Z,13.1
2022-10-23T12:01:01.732Z,12.7
2022-10-23T12:06:04.265Z,12.2
2022-10-23T12:11:01.778Z,11.3
2022-10-23T12:16:01.651Z,10.9
2022-10-23T12:21:01.683Z,11.2
2022-10-23T12:26:01.664Z,11.4
2022-10-23T12:31:01.563Z,11.0
2022-10-23T12:36:01.642Z,10.8
2022-10-23T12:46:01.635Z,10.7
2022-10-23T12:56:01.757Z,10.6
2022-10-23T13:01:02.073Z,10.8
2022-10-23T13:06:01.630Z,10.9
2022-10-23T13:11:01.728Z,10.6
2022-10-23T13:16:01.561Z,10.2
2022-10-23T13:26:01.625Z,10.3
2022-10-23T13:31:01.593Z,10.2
2022-10-23T13:36:01.639Z,10.7
2022-10-23T13:41:01.668Z,10.8
2022-10-23T13:46:01.919Z,11.7
2022-10-23T13:51:01.656Z,11.4
2022-10-23T13:57:01.650Z,11.0
2022-10-23T14:07:01.640Z,10.9
2022-10-23T14:12:01.647Z,11.6
2022-10-23T14:22:01.701Z,13.2
2022-10-23T14:27:01.702Z,13.2
2022-10-23T14:32:02.120Z,14.0
2022-10-23T14:37:09.513Z,14.4
2022-10-23T14:42:01.561Z,15.1
2022-10-23T14:47:01.663Z,14.9
2022-10-23T14:52:02.317Z,15.5
2022-10-23T14:57:01.603Z,15.6
2022-10-23T15:02:01.605Z,15.2
2022-10-23T15:07:01.626Z,15.5
2022-10-23T15:12:01.607Z,14.4
2022-10-23T15:17:02.073Z,15.3
2022-10-23T15:22:02.086Z,15.3
2022-10-23T15:27:01.747Z,15.6
2022-10-23T15:33:01.631Z,15.3
2022-10-23T15:38:01.597Z,17.3
2022-10-23T15:43:01.597Z,17.2
2022-10-23T15:48:01.622Z,17.8
2022-10-23T15:53:01.597Z,17.2
2022-10-23T15:58:01.662Z,18.0
2022-10-23T16:03:01.737Z,18.3
2022-10-23T16:08:01.677Z,18.4
2022-10-23T16:13:02.083Z,17.9
2022-10-23T16:18:01.601Z,18.9
2022-10-23T16:23:01.711Z,19.9
2022-10-23T16:28:01.619Z,23.0
2022-10-23T16:33:01.630Z,25.8
2022-10-23T16:38:01.625Z,27.8
2022-10-23T16:43:01.722Z,29.7
2022-10-23T16:48:02.229Z,29.2
2022-10-23T16:53:01.655Z,26.6
2022-10-23T16:58:01.623Z,24.6
2022-10-23T17:03:01.744Z,24.3
2022-10-23T17:08:01.633Z,24.4
2022-10-23T17:13:01.646Z,25.6
2022-10-23T17:18:01.660Z,26.4
2022-10-23T17:23:01.745Z,26.7
2022-10-23T17:28:01.815Z,26.4
2022-10-23T17:33:02.250Z,25.9
2022-10-23T17:38:01.511Z,25.3
2022-10-23T17:43:01.477Z,25.0
2022-10-23T17:48:01.289Z,25.4
2022-10-23T17:53:01.393Z,26.2
2022-10-23T17:58:01.258Z,27.4
2022-10-23T18:03:02.012Z,28.5
2022-10-23T18:08:01.534Z,28.5
2022-10-23T18:13:02.328Z,28.9
2022-10-23T18:18:01.544Z,29.4
2022-10-23T18:23:01.729Z,29.8
2022-10-23T18:28:02.798Z,29.0
2022-10-23T18:33:01.709Z,30.1
2022-10-23T18:38:01.708Z,30.9
2022-10-23T18:43:01.718Z,32.0
2022-10-23T18:48:01.658Z,32.5
2022-10-23T18:53:01.687Z,33.6
2022-10-23T18:58:01.678Z,33.4
2022-10-23T19:03:01.719Z,33.5
2022-10-23T19:08:01.647Z,33.3
2022-10-23T19:13:01.694Z,32.9
2022-10-23T19:23:01.845Z,32.9
2022-10-23T19:28:01.657Z,32.2
2022-10-23T19:33:01.391Z,31.7
2022-10-23T19:38:01.774Z,31.6
2022-10-23T19:43:01.703Z,31.8
2022-10-23T19:48:01.635Z,32.1
2022-10-23T19:53:01.715Z,32.5
2022-10-23T19:58:02.197Z,32.0
2022-10-23T20:03:01.635Z,32.2
2022-10-23T20:08:02.064Z,31.4
2022-10-23T20:18:01.634Z,31.2
2022-10-23T20:23:01.653Z,31.5
2022-10-23T20:28:02.593Z,31.0
2022-10-23T20:33:01.616Z,31.4
2022-10-23T20:38:01.688Z,31.4
2022-10-23T20:43:01.683Z,31.1
2022-10-23T20:48:02.073Z,29.8
2022-10-23T20:53:01.632Z,29.3
2022-10-23T21:03:01.745Z,28.8
2022-10-23T21:08:01.700Z,28.8
2022-10-23T21:13:01.621Z,30.1
2022-10-23T21:18:19.346Z,30.6
2022-10-23T21:23:01.847Z,30.5
2022-10-23T21:28:01.627Z,28.9
2022-10-23T21:34:01.895Z,28.6
2022-10-23T21:39:01.693Z,28.2
2022-10-23T21:44:01.648Z,28.1
2022-10-23T21:54:01.641Z,29.5
2022-10-23T21:59:02.051Z,29.2
2022-10-23T22:04:01.628Z,29.1
2022-10-23T22:09:01.628Z,29.4
2022-10-23T22:14:01.663Z,28.3
2022-10-23T22:19:01.624Z,27.5
2022-10-23T22:24:01.729Z,27.4
2022-10-23T22:29:02.736Z,27.0
2022-10-23T22:39:01.687Z,24.3
2022-10-23T22:44:02.235Z,22.0
2022-10-23T22:49:01.766Z,19.4
2022-10-23T22:54:01.782Z,16.5
2022-10-23T22:59:01.680Z,15.0
2022-10-23T23:09:01.606Z,15.7
2022-10-23T23:14:02.530Z,16.3
2022-10-23T23:19:01.743Z,18.0
2022-10-23T23:24:01.717Z,20.1
2022-10-23T23:29:01.609Z,21.6
2022-10-23T23:34:01.503Z,22.8
2022-10-23T23:39:01.866Z,24.8
2022-10-23T23:44:01.608Z,25.9
2022-10-23T23:49:01.612Z,26.1
2022-10-23T23:54:01.804Z,25.5
2022-10-23T23:59:01.703Z,26.2
